sensor_id;sensor_type;location;lat;lon;timestamp;temperature;humidity
4962;DHT22;2496;52.468;13.342;2022-11-20T00:00:27;0.70;99.90
4962;DHT22;2496;52.468;13.342;2022-11-20T00:02:55;0.70;99.90
4962;DHT22;2496;52.468;13.342;2022-11-20T00:05:23;0.60;99.90
4962;DHT22;2496;52.468;13.342;2022-11-20T00:07:51;0.60;99.90
4962;DHT22;2496;52.468;13.342;2022-11-20T00:10:21;0.60;99.90
4962;DHT22;2496;52.468;13.342;2022-11-20T00:12:50;0.60;99.90
4962;DHT22;2496;52.468;13.342;2022-11-20T00:15:20;0.70;99.90
4962;DHT22;2496;52.468;13.342;2022-11-20T00:17:47;0.60;99.90
4962;DHT22;2496;52.468;13.342;2022-11-20T00:20:16;0.60;99.90
4962;DHT22;2496;52.468;13.342;2022-11-20T00:22:44;0.60;99.90
4962;DHT22;2496;52.468;13.342;2022-11-20T00:25:11;0.60;99.90
4962;DHT22;2496;52.468;13.342;2022-11-20T00:27:39;0.60;99.90
4962;DHT22;2496;52.468;13.342;2022-11-20T00:30:08;0.60;99.90
4962;DHT22;2496;52.468;13.342;2022-11-20T00:32:38;0.60;99.90
4962;DHT22;2496;52.468;13.342;2022-11-20T00:35:06;0.60;99.90
4962;DHT22;2496;52.468;13.342;2022-11-20T00:37:33;0.70;99.90
4962;DHT22;2496;52.468;13.342;2022-11-20T00:40:01;0.70;99.90
4962;DHT22;2496;52.468;13.342;2022-11-20T00:42:31;0.70;99.90
4962;DHT22;2496;52.468;13.342;2022-11-20T00:45:00;0.70;99.90
4962;DHT22;2496;52.468;13.342;2022-11-20T00:47:28;0.70;99.90
4962;DHT22;2496;52.468;13.342;2022-11-20T00:49:58;0.70;99.90
4962;DHT22;2496;52.468;13.342;2022-11-20T00:52:28;0.70;99.90
4962;DHT22;2496;52.468;13.342;2022-11-20T00:54:57;0.70;99.90
4962;DHT22;2496;52.468;13.342;2022-11-20T00:57:24;0.70;99.90
4962;DHT22;2496;52.468;13.342;2022-11-20T00:59:51;0.70;99.90
4962;DHT22;2496;52.468;13.342;2022-11-20T01:02:18;0.70;99.90
4962;DHT22;2496;52.468;13.342;2022-11-20T01:04:45;0.70;99.90
4962;DHT22;2496;52.468;13.342;2022-11-20T01:07:14;0.70;99.90
4962;DHT22;2496;52.468;13.342;2022-11-20T01:09:41;0.80;99.90
4962;DHT22;2496;52.468;13.342;2022-11-20T01:12:08;0.80;99.90
4962;DHT22;2496;52.468;13.342;2022-11-20T01:14:35;0.80;99.90
4962;DHT22;2496;52.468;13.342;2022-11-20T01:17:01;0.80;99.90
4962;DHT22;2496;52.468;13.342;2022-11-20T01:19:28;0.80;99.90
4962;DHT22;2496;52.468;13.342;2022-11-20T01:21:55;0.80;99.90
4962;DHT22;2496;52.468;13.342;2022-11-20T01:24:25;0.80;99.90
4962;DHT22;2496;52.468;13.342;2022-11-20T01:26:52;0.80;99.90
4962;DHT22;2496;52.468;13.342;2022-11-20T01:29:20;0.80;99.90
4962;DHT22;2496;52.468;13.342;2022-11-20T01:31:48;0.80;99.90
4962;DHT22;2496;52.468;13.342;2022-11-20T01:34:17;0.80;99.90
4962;DHT22;2496;52.468;13.342;2022-11-20T01:36:44;0.80;99.90
4962;DHT22;2496;52.468;13.342;2022-11-20T01:39:14;0.80;99.90
4962;DHT22;2496;52.468;13.342;2022-11-20T01:41:43;0.70;99.90
4962;DHT22;2496;52.468;13.342;2022-11-20T01:44:52;0.70;99.90
4962;DHT22;2496;52.468;13.342;2022-11-20T01:47:27;0.70;99.90
4962;DHT22;2496;52.468;13.342;2022-11-20T01:49:59;0.70;99.90
4962;DHT22;2496;52.468;13.342;2022-11-20T01:52:34;0.70;99.90
4962;DHT22;2496;52.468;13.342;2022-11-20T01:55:05;0.70;99.90
4962;DHT22;2496;52.468;13.342;2022-11-20T01:57:38;0.70;99.90
4962;DHT22;2496;52.468;13.342;2022-11-20T02:00:08;0.70;99.90
4962;DHT22;2496;52.468;13.342;2022-11-20T02:02:37;0.70;99.90
4962;DHT22;2496;52.468;13.342;2022-11-20T02:05:14;0.70;99.90
4962;DHT22;2496;52.468;13.342;2022-11-20T02:07:43;0.70;99.90
4962;DHT22;2496;52.468;13.342;2022-11-20T02:10:11;0.60;99.90
4962;DHT22;2496;52.468;13.342;2022-11-20T02:12:40;0.60;99.90
4962;DHT22;2496;52.468;13.342;2022-11-20T02:15:24;0.60;99.90
4962;DHT22;2496;52.468;13.342;2022-11-20T02:17:51;0.60;99.90
4962;DHT22;2496;52.468;13.342;2022-11-20T02:20:18;0.60;99.90
4962;DHT22;2496;52.468;13.342;2022-11-20T02:22:50;0.50;99.90
4962;DHT22;2496;52.468;13.342;2022-11-20T02:25:19;0.50;99.90
4962;DHT22;2496;52.468;13.342;2022-11-20T02:27:46;0.50;99.90
4962;DHT22;2496;52.468;13.342;2022-11-20T02:30:14;0.40;99.90
4962;DHT22;2496;52.468;13.342;2022-11-20T02:32:41;0.40;99.90
4962;DHT22;2496;52.468;13.342;2022-11-20T02:35:09;0.40;99.90
4962;DHT22;2496;52.468;13.342;2022-11-20T02:37:38;0.40;99.90
4962;DHT22;2496;52.468;13.342;2022-11-20T02:40:07;0.40;99.90
4962;DHT22;2496;52.468;13.342;2022-11-20T02:42:36;0.40;99.90
4962;DHT22;2496;52.468;13.342;2022-11-20T02:45:04;0.40;99.90
4962;DHT22;2496;52.468;13.342;2022-11-20T02:47:32;0.40;99.90
4962;DHT22;2496;52.468;13.342;2022-11-20T02:49:59;0.40;99.90
4962;DHT22;2496;52.468;13.342;2022-11-20T02:52:26;0.40;99.90
4962;DHT22;2496;52.468;13.342;2022-11-20T02:54:53;0.40;99.90
4962;DHT22;2496;52.468;13.342;2022-11-20T02:57:20;0.30;99.90
4962;DHT22;2496;52.468;13.342;2022-11-20T02:59:49;0.30;99.90
4962;DHT22;2496;52.468;13.342;2022-11-20T03:02:16;0.30;99.90
4962;DHT22;2496;52.468;13.342;2022-11-20T03:04:43;0.30;99.90
4962;DHT22;2496;52.468;13.342;2022-11-20T03:07:10;0.30;99.90
4962;DHT22;2496;52.468;13.342;2022-11-20T03:09:37;0.40;99.90
4962;DHT22;2496;52.468;13.342;2022-11-20T03:12:05;0.40;99.90
4962;DHT22;2496;52.468;13.342;2022-11-20T03:14:32;0.40;99.90
4962;DHT22;2496;52.468;13.342;2022-11-20T03:17:00;0.40;99.90
4962;DHT22;2496;52.468;13.342;2022-11-20T03:19:27;0.40;99.90
4962;DHT22;2496;52.468;13.342;2022-11-20T03:21:54;0.40;99.90
4962;DHT22;2496;52.468;13.342;2022-11-20T03:24:21;0.40;99.90
4962;DHT22;2496;52.468;13.342;2022-11-20T03:26:48;0.40;99.90
4962;DHT22;2496;52.468;13.342;2022-11-20T03:29:15;0.30;99.90
4962;DHT22;2496;52.468;13.342;2022-11-20T03:31:42;0.30;99.90
4962;DHT22;2496;52.468;13.342;2022-11-20T03:34:11;0.40;99.90
4962;DHT22;2496;52.468;13.342;2022-11-20T03:36:39;0.30;99.90
4962;DHT22;2496;52.468;13.342;2022-11-20T03:39:06;0.30;99.90
4962;DHT22;2496;52.468;13.342;2022-11-20T03:41:36;0.30;99.90
4962;DHT22;2496;52.468;13.342;2022-11-20T03:44:06;0.30;99.90
4962;DHT22;2496;52.468;13.342;2022-11-20T03:46:33;0.30;99.90
4962;DHT22;2496;52.468;13.342;2022-11-20T03:49:00;0.30;99.90
4962;DHT22;2496;52.468;13.342;2022-11-20T03:51:30;0.30;99.90
4962;DHT22;2496;52.468;13.342;2022-11-20T03:53:59;0.30;99.90
4962;DHT22;2496;52.468;13.342;2022-11-20T03:56:28;0.30;99.90
4962;DHT22;2496;52.468;13.342;2022-11-20T03:58:56;0.30;99.90
4962;DHT22;2496;52.468;13.342;2022-11-20T04:01:25;0.30;99.90
4962;DHT22;2496;52.468;13.342;2022-11-20T04:03:54;0.30;99.90
4962;DHT22;2496;52.468;13.342;2022-11-20T04:06:22;0.30;99.90
4962;DHT22;2496;52.468;13.342;2022-11-20T04:08:51;0.30;99.90
4962;DHT22;2496;52.468;13.342;2022-11-20T04:11:21;0.20;99.90
4962;DHT22;2496;52.468;13.342;2022-11-20T04:13:50;0.20;99.90
4962;DHT22;2496;52.468;13.342;2022-11-20T04:16:18;0.20;99.90
4962;DHT22;2496;52.468;13.342;2022-11-20T04:18:50;0.20;99.90
4962;DHT22;2496;52.468;13.342;2022-11-20T04:21:17;0.20;99.90
4962;DHT22;2496;52.468;13.342;2022-11-20T04:23:44;0.20;99.90
4962;DHT22;2496;52.468;13.342;2022-11-20T04:26:12;0.20;99.90
4962;DHT22;2496;52.468;13.342;2022-11-20T04:28:40;0.20;99.90
4962;DHT22;2496;52.468;13.342;2022-11-20T04:31:08;0.20;99.90
4962;DHT22;2496;52.468;13.342;2022-11-20T04:33:36;0.30;99.90
4962;DHT22;2496;52.468;13.342;2022-11-20T04:36:05;0.20;99.90
4962;DHT22;2496;52.468;13.342;2022-11-20T04:38:33;0.30;99.90
4962;DHT22;2496;52.468;13.342;2022-11-20T04:41:01;0.20;99.90
4962;DHT22;2496;52.468;13.342;2022-11-20T04:43:30;0.30;99.90
4962;DHT22;2496;52.468;13.342;2022-11-20T04:45:58;0.30;99.90
4962;DHT22;2496;52.468;13.342;2022-11-20T04:48:26;0.20;99.90
4962;DHT22;2496;52.468;13.342;2022-11-20T04:50:54;0.20;99.90
4962;DHT22;2496;52.468;13.342;2022-11-20T04:53:21;0.20;99.90
4962;DHT22;2496;52.468;13.342;2022-11-20T04:55:49;0.20;99.90
4962;DHT22;2496;52.468;13.342;2022-11-20T04:58:16;0.20;99.90
4962;DHT22;2496;52.468;13.342;2022-11-20T05:00:44;0.20;99.90
4962;DHT22;2496;52.468;13.342;2022-11-20T05:03:11;0.20;99.90
4962;DHT22;2496;52.468;13.342;2022-11-20T05:05:38;0.20;99.90
4962;DHT22;2496;52.468;13.342;2022-11-20T05:08:05;0.20;99.90
4962;DHT22;2496;52.468;13.342;2022-11-20T05:10:32;0.20;99.90
4962;DHT22;2496;52.468;13.342;2022-11-20T05:12:59;0.20;99.90
4962;DHT22;2496;52.468;13.342;2022-11-20T05:15:26;0.20;99.90
4962;DHT22;2496;52.468;13.342;2022-11-20T05:17:54;0.20;99.90
4962;DHT22;2496;52.468;13.342;2022-11-20T05:20:21;0.20;99.90
4962;DHT22;2496;52.468;13.342;2022-11-20T05:22:48;0.30;99.90
4962;DHT22;2496;52.468;13.342;2022-11-20T05:25:16;0.30;99.90
4962;DHT22;2496;52.468;13.342;2022-11-20T05:27:43;0.30;99.90
4962;DHT22;2496;52.468;13.342;2022-11-20T05:30:11;0.30;99.90
4962;DHT22;2496;52.468;13.342;2022-11-20T05:32:38;0.30;99.90
4962;DHT22;2496;52.468;13.342;2022-11-20T05:35:07;0.40;99.90
4962;DHT22;2496;52.468;13.342;2022-11-20T05:37:34;0.40;99.90
4962;DHT22;2496;52.468;13.342;2022-11-20T05:40:01;0.40;99.90
4962;DHT22;2496;52.468;13.342;2022-11-20T05:42:30;0.40;99.90
4962;DHT22;2496;52.468;13.342;2022-11-20T05:44:57;0.40;99.90
4962;DHT22;2496;52.468;13.342;2022-11-20T05:47:24;0.40;99.90
4962;DHT22;2496;52.468;13.342;2022-11-20T05:49:51;0.40;99.90
4962;DHT22;2496;52.468;13.342;2022-11-20T05:52:20;0.40;99.90
4962;DHT22;2496;52.468;13.342;2022-11-20T05:54:47;0.40;99.90
4962;DHT22;2496;52.468;13.342;2022-11-20T05:57:14;0.40;99.90
4962;DHT22;2496;52.468;13.342;2022-11-20T05:59:41;0.30;99.90
4962;DHT22;2496;52.468;13.342;2022-11-20T06:02:08;0.30;99.90
4962;DHT22;2496;52.468;13.342;2022-11-20T06:04:35;0.30;99.90
4962;DHT22;2496;52.468;13.342;2022-11-20T06:07:04;0.30;99.90
4962;DHT22;2496;52.468;13.342;2022-11-20T06:09:32;0.30;99.90
4962;DHT22;2496;52.468;13.342;2022-11-20T06:11:59;0.30;99.90
4962;DHT22;2496;52.468;13.342;2022-11-20T06:14:26;0.30;99.90
4962;DHT22;2496;52.468;13.342;2022-11-20T06:16:53;0.30;99.90
4962;DHT22;2496;52.468;13.342;2022-11-20T06:19:20;0.30;99.90
4962;DHT22;2496;52.468;13.342;2022-11-20T06:21:47;0.30;99.90
4962;DHT22;2496;52.468;13.342;2022-11-20T06:24:15;0.30;99.90
4962;DHT22;2496;52.468;13.342;2022-11-20T06:26:43;0.30;99.90
4962;DHT22;2496;52.468;13.342;2022-11-20T06:29:11;0.30;99.90
4962;DHT22;2496;52.468;13.342;2022-11-20T06:31:38;0.30;99.90
4962;DHT22;2496;52.468;13.342;2022-11-20T06:34:05;0.30;99.90
4962;DHT22;2496;52.468;13.342;2022-11-20T06:36:33;0.30;99.90
4962;DHT22;2496;52.468;13.342;2022-11-20T06:39:00;0.30;99.90
4962;DHT22;2496;52.468;13.342;2022-11-20T06:41:27;0.30;99.90
4962;DHT22;2496;52.468;13.342;2022-11-20T06:43:55;0.20;99.90
4962;DHT22;2496;52.468;13.342;2022-11-20T06:46:23;0.20;99.90
4962;DHT22;2496;52.468;13.342;2022-11-20T06:48:50;0.20;99.90
4962;DHT22;2496;52.468;13.342;2022-11-20T06:51:20;0.20;99.90
4962;DHT22;2496;52.468;13.342;2022-11-20T06:53:47;0.20;99.90
4962;DHT22;2496;52.468;13.342;2022-11-20T06:56:14;0.20;99.90
4962;DHT22;2496;52.468;13.342;2022-11-20T06:58:41;0.20;99.90
4962;DHT22;2496;52.468;13.342;2022-11-20T07:01:10;0.20;99.90
4962;DHT22;2496;52.468;13.342;2022-11-20T07:03:38;0.20;99.90
4962;DHT22;2496;52.468;13.342;2022-11-20T07:06:06;0.20;99.90
4962;DHT22;2496;52.468;13.342;2022-11-20T07:08:34;0.20;99.90
4962;DHT22;2496;52.468;13.342;2022-11-20T07:11:02;0.20;99.90
4962;DHT22;2496;52.468;13.342;2022-11-20T07:13:29;0.20;99.90
4962;DHT22;2496;52.468;13.342;2022-11-20T07:15:59;0.20;99.90
4962;DHT22;2496;52.468;13.342;2022-11-20T07:18:28;0.20;99.90
4962;DHT22;2496;52.468;13.342;2022-11-20T07:20:55;0.20;99.90
4962;DHT22;2496;52.468;13.342;2022-11-20T07:23:22;0.10;99.90
4962;DHT22;2496;52.468;13.342;2022-11-20T07:25:49;0.10;99.90
4962;DHT22;2496;52.468;13.342;2022-11-20T07:28:16;0.10;99.90
4962;DHT22;2496;52.468;13.342;2022-11-20T07:30:43;0.20;99.90
4962;DHT22;2496;52.468;13.342;2022-11-20T07:33:15;0.20;99.90
4962;DHT22;2496;52.468;13.342;2022-11-20T07:35:44;0.20;99.90
4962;DHT22;2496;52.468;13.342;2022-11-20T07:38:11;0.20;99.90
4962;DHT22;2496;52.468;13.342;2022-11-20T07:40:38;0.20;99.90
4962;DHT22;2496;52.468;13.342;2022-11-20T07:43:05;0.20;99.90
4962;DHT22;2496;52.468;13.342;2022-11-20T07:45:32;0.20;99.90
4962;DHT22;2496;52.468;13.342;2022-11-20T07:47:59;0.20;99.90
4962;DHT22;2496;52.468;13.342;2022-11-20T07:50:26;0.20;99.90
4962;DHT22;2496;52.468;13.342;2022-11-20T07:53:00;0.20;99.90
4962;DHT22;2496;52.468;13.342;2022-11-20T07:55:27;0.20;99.90
4962;DHT22;2496;52.468;13.342;2022-11-20T07:57:54;0.20;99.90
4962;DHT22;2496;52.468;13.342;2022-11-20T08:00:22;0.20;99.90
4962;DHT22;2496;52.468;13.342;2022-11-20T08:02:49;0.20;99.90
4962;DHT22;2496;52.468;13.342;2022-11-20T08:05:17;0.20;99.90
4962;DHT22;2496;52.468;13.342;2022-11-20T08:07:44;0.20;99.90
4962;DHT22;2496;52.468;13.342;2022-11-20T08:10:14;0.20;99.90
4962;DHT22;2496;52.468;13.342;2022-11-20T08:12:45;0.30;99.90
4962;DHT22;2496;52.468;13.342;2022-11-20T08:15:30;0.30;99.90
4962;DHT22;2496;52.468;13.342;2022-11-20T08:18:01;0.30;99.90
4962;DHT22;2496;52.468;13.342;2022-11-20T08:20:29;0.30;99.90
4962;DHT22;2496;52.468;13.342;2022-11-20T08:23:00;0.30;99.90
4962;DHT22;2496;52.468;13.342;2022-11-20T08:25:29;0.30;99.90
4962;DHT22;2496;52.468;13.342;2022-11-20T08:27:57;0.40;99.90
4962;DHT22;2496;52.468;13.342;2022-11-20T08:30:25;0.40;99.90
4962;DHT22;2496;52.468;13.342;2022-11-20T08:32:53;0.40;99.90
4962;DHT22;2496;52.468;13.342;2022-11-20T08:35:20;0.40;99.90
4962;DHT22;2496;52.468;13.342;2022-11-20T08:37:47;0.40;99.90
4962;DHT22;2496;52.468;13.342;2022-11-20T08:40:15;0.40;99.90
4962;DHT22;2496;52.468;13.342;2022-11-20T08:42:50;0.50;99.90
4962;DHT22;2496;52.468;13.342;2022-11-20T08:45:18;0.50;99.90
4962;DHT22;2496;52.468;13.342;2022-11-20T08:47:46;0.40;99.90
4962;DHT22;2496;52.468;13.342;2022-11-20T08:50:14;0.40;99.90
4962;DHT22;2496;52.468;13.342;2022-11-20T08:52:42;0.40;99.90
4962;DHT22;2496;52.468;13.342;2022-11-20T08:55:09;0.40;99.90
4962;DHT22;2496;52.468;13.342;2022-11-20T08:57:38;0.40;99.90
4962;DHT22;2496;52.468;13.342;2022-11-20T09:00:09;0.50;99.90
4962;DHT22;2496;52.468;13.342;2022-11-20T09:02:36;0.50;99.90
4962;DHT22;2496;52.468;13.342;2022-11-20T09:05:04;0.50;99.90
4962;DHT22;2496;52.468;13.342;2022-11-20T09:07:31;0.50;99.90
4962;DHT22;2496;52.468;13.342;2022-11-20T09:09:58;0.50;99.90
4962;DHT22;2496;52.468;13.342;2022-11-20T09:12:25;0.60;99.90
4962;DHT22;2496;52.468;13.342;2022-11-20T09:14:52;0.60;99.90
4962;DHT22;2496;52.468;13.342;2022-11-20T09:17:21;0.60;99.90
4962;DHT22;2496;52.468;13.342;2022-11-20T09:19:48;0.60;99.90
4962;DHT22;2496;52.468;13.342;2022-11-20T09:22:15;0.60;99.90
4962;DHT22;2496;52.468;13.342;2022-11-20T09:24:42;0.70;99.90
4962;DHT22;2496;52.468;13.342;2022-11-20T09:27:09;0.70;99.90
4962;DHT22;2496;52.468;13.342;2022-11-20T09:29:36;0.70;99.90
4962;DHT22;2496;52.468;13.342;2022-11-20T09:32:03;0.70;99.90
4962;DHT22;2496;52.468;13.342;2022-11-20T09:34:31;0.60;99.90
4962;DHT22;2496;52.468;13.342;2022-11-20T09:36:58;0.70;99.90
4962;DHT22;2496;52.468;13.342;2022-11-20T09:39:25;1.00;99.90
4962;DHT22;2496;52.468;13.342;2022-11-20T09:42:08;1.10;99.90
4962;DHT22;2496;52.468;13.342;2022-11-20T09:44:53;1.20;99.90
4962;DHT22;2496;52.468;13.342;2022-11-20T09:47:30;1.10;99.90
4962;DHT22;2496;52.468;13.342;2022-11-20T09:50:12;1.10;99.90
4962;DHT22;2496;52.468;13.342;2022-11-20T09:52:53;1.00;99.90
4962;DHT22;2496;52.468;13.342;2022-11-20T09:55:24;1.00;99.90
4962;DHT22;2496;52.468;13.342;2022-11-20T09:57:52;0.90;99.90
4962;DHT22;2496;52.468;13.342;2022-11-20T10:00:19;0.90;99.90
4962;DHT22;2496;52.468;13.342;2022-11-20T10:02:52;0.90;99.90
4962;DHT22;2496;52.468;13.342;2022-11-20T10:05:27;0.90;99.90
4962;DHT22;2496;52.468;13.342;2022-11-20T10:08:07;0.80;99.90
4962;DHT22;2496;52.468;13.342;2022-11-20T10:10:42;0.80;99.90
4962;DHT22;2496;52.468;13.342;2022-11-20T10:13:19;0.80;99.90
4962;DHT22;2496;52.468;13.342;2022-11-20T10:15:57;0.80;99.90
4962;DHT22;2496;52.468;13.342;2022-11-20T10:18:37;0.80;99.90
4962;DHT22;2496;52.468;13.342;2022-11-20T10:21:15;0.80;99.90
4962;DHT22;2496;52.468;13.342;2022-11-20T10:23:58;0.80;99.90
4962;DHT22;2496;52.468;13.342;2022-11-20T10:26:30;0.80;99.90
4962;DHT22;2496;52.468;13.342;2022-11-20T10:29:11;0.80;99.90
4962;DHT22;2496;52.468;13.342;2022-11-20T10:31:41;0.90;99.90
4962;DHT22;2496;52.468;13.342;2022-11-20T10:34:18;0.90;99.90
4962;DHT22;2496;52.468;13.342;2022-11-20T10:36:52;0.90;99.90
4962;DHT22;2496;52.468;13.342;2022-11-20T10:39:26;0.90;99.90
4962;DHT22;2496;52.468;13.342;2022-11-20T10:41:56;0.90;99.90
4962;DHT22;2496;52.468;13.342;2022-11-20T10:44:27;1.00;99.90
4962;DHT22;2496;52.468;13.342;2022-11-20T10:47:13;1.00;99.90
4962;DHT22;2496;52.468;13.342;2022-11-20T10:49:41;1.10;99.90
4962;DHT22;2496;52.468;13.342;2022-11-20T10:52:17;1.10;99.90
4962;DHT22;2496;52.468;13.342;2022-11-20T10:54:55;1.10;99.90
4962;DHT22;2496;52.468;13.342;2022-11-20T10:57:36;1.10;99.90
4962;DHT22;2496;52.468;13.342;2022-11-20T11:00:13;1.10;99.90
4962;DHT22;2496;52.468;13.342;2022-11-20T11:02:46;1.10;99.90
4962;DHT22;2496;52.468;13.342;2022-11-20T11:05:22;1.20;99.90
4962;DHT22;2496;52.468;13.342;2022-11-20T11:07:54;1.20;99.90
4962;DHT22;2496;52.468;13.342;2022-11-20T11:10:25;1.30;99.90
4962;DHT22;2496;52.468;13.342;2022-11-20T11:12:53;1.30;99.90
4962;DHT22;2496;52.468;13.342;2022-11-20T11:15:27;1.40;99.90
4962;DHT22;2496;52.468;13.342;2022-11-20T11:17:55;1.40;99.90
4962;DHT22;2496;52.468;13.342;2022-11-20T11:20:23;1.40;99.90
4962;DHT22;2496;52.468;13.342;2022-11-20T11:22:53;1.60;99.90
4962;DHT22;2496;52.468;13.342;2022-11-20T11:25:29;1.60;99.90
4962;DHT22;2496;52.468;13.342;2022-11-20T11:28:02;1.70;99.90
4962;DHT22;2496;52.468;13.342;2022-11-20T11:30:39;1.70;99.90
4962;DHT22;2496;52.468;13.342;2022-11-20T11:33:10;1.80;99.90
4962;DHT22;2496;52.468;13.342;2022-11-20T11:35:45;1.80;99.90
4962;DHT22;2496;52.468;13.342;2022-11-20T11:38:16;1.80;99.90
4962;DHT22;2496;52.468;13.342;2022-11-20T11:40:45;1.80;99.90
4962;DHT22;2496;52.468;13.342;2022-11-20T11:43:19;1.80;99.90
4962;DHT22;2496;52.468;13.342;2022-11-20T11:46:30;1.80;99.90
4962;DHT22;2496;52.468;13.342;2022-11-20T11:48:58;1.80;99.90
4962;DHT22;2496;52.468;13.342;2022-11-20T11:51:31;1.80;99.90
4962;DHT22;2496;52.468;13.342;2022-11-20T11:54:04;1.80;99.90
4962;DHT22;2496;52.468;13.342;2022-11-20T11:56:35;1.80;99.90
4962;DHT22;2496;52.468;13.342;2022-11-20T11:59:06;1.80;99.90
4962;DHT22;2496;52.468;13.342;2022-11-20T12:01:44;1.80;99.90
4962;DHT22;2496;52.468;13.342;2022-11-20T12:04:18;1.80;99.90
4962;DHT22;2496;52.468;13.342;2022-11-20T12:06:51;1.80;99.90
4962;DHT22;2496;52.468;13.342;2022-11-20T12:09:24;1.80;99.90
4962;DHT22;2496;52.468;13.342;2022-11-20T12:11:58;1.80;99.90
4962;DHT22;2496;52.468;13.342;2022-11-20T12:14:34;1.90;99.90
4962;DHT22;2496;52.468;13.342;2022-11-20T12:17:02;1.90;99.90
4962;DHT22;2496;52.468;13.342;2022-11-20T12:19:30;2.00;99.90
4962;DHT22;2496;52.468;13.342;2022-11-20T12:22:04;2.00;99.90
4962;DHT22;2496;52.468;13.342;2022-11-20T12:24:51;2.00;99.90
4962;DHT22;2496;52.468;13.342;2022-11-20T12:27:44;2.00;99.90
4962;DHT22;2496;52.468;13.342;2022-11-20T12:30:15;2.00;99.90
4962;DHT22;2496;52.468;13.342;2022-11-20T12:33:12;2.00;99.90
4962;DHT22;2496;52.468;13.342;2022-11-20T12:36:09;2.00;99.90
4962;DHT22;2496;52.468;13.342;2022-11-20T12:38:55;2.10;99.90
4962;DHT22;2496;52.468;13.342;2022-11-20T12:41:40;2.10;99.90
4962;DHT22;2496;52.468;13.342;2022-11-20T12:44:36;2.10;99.90
4962;DHT22;2496;52.468;13.342;2022-11-20T12:47:34;2.10;99.90
4962;DHT22;2496;52.468;13.342;2022-11-20T12:50:07;2.00;99.90
4962;DHT22;2496;52.468;13.342;2022-11-20T12:52:44;2.00;99.90
4962;DHT22;2496;52.468;13.342;2022-11-20T12:55:23;2.00;99.90
4962;DHT22;2496;52.468;13.342;2022-11-20T12:57:58;2.00;99.90
4962;DHT22;2496;52.468;13.342;2022-11-20T13:00:26;1.90;99.90
4962;DHT22;2496;52.468;13.342;2022-11-20T13:03:13;1.90;99.90
4962;DHT22;2496;52.468;13.342;2022-11-20T13:05:51;1.80;99.90
4962;DHT22;2496;52.468;13.342;2022-11-20T13:08:24;1.80;99.90
4962;DHT22;2496;52.468;13.342;2022-11-20T13:10:56;1.80;99.90
4962;DHT22;2496;52.468;13.342;2022-11-20T13:13:31;1.70;99.90
4962;DHT22;2496;52.468;13.342;2022-11-20T13:16:02;1.80;99.90
4962;DHT22;2496;52.468;13.342;2022-11-20T13:18:36;1.70;99.90
4962;DHT22;2496;52.468;13.342;2022-11-20T13:21:16;1.70;99.90
4962;DHT22;2496;52.468;13.342;2022-11-20T13:23:44;1.70;99.90
4962;DHT22;2496;52.468;13.342;2022-11-20T13:26:28;1.70;99.90
4962;DHT22;2496;52.468;13.342;2022-11-20T13:29:08;1.60;99.90
4962;DHT22;2496;52.468;13.342;2022-11-20T13:31:36;1.60;99.90
4962;DHT22;2496;52.468;13.342;2022-11-20T13:34:12;1.60;99.90
4962;DHT22;2496;52.468;13.342;2022-11-20T13:36:49;1.60;99.90
4962;DHT22;2496;52.468;13.342;2022-11-20T13:39:24;1.60;99.90
4962;DHT22;2496;52.468;13.342;2022-11-20T13:41:54;1.60;99.90
4962;DHT22;2496;52.468;13.342;2022-11-20T13:44:31;1.60;99.90
4962;DHT22;2496;52.468;13.342;2022-11-20T13:47:00;1.60;99.90
4962;DHT22;2496;52.468;13.342;2022-11-20T13:49:30;1.60;99.90
4962;DHT22;2496;52.468;13.342;2022-11-20T13:52:08;1.60;99.90
4962;DHT22;2496;52.468;13.342;2022-11-20T13:54:59;1.60;99.90
4962;DHT22;2496;52.468;13.342;2022-11-20T13:57:42;1.60;99.90
4962;DHT22;2496;52.468;13.342;2022-11-20T14:00:16;1.60;99.90
4962;DHT22;2496;52.468;13.342;2022-11-20T14:02:44;1.60;99.90
4962;DHT22;2496;52.468;13.342;2022-11-20T14:05:19;1.60;99.90
4962;DHT22;2496;52.468;13.342;2022-11-20T14:07:48;1.70;99.90
4962;DHT22;2496;52.468;13.342;2022-11-20T14:10:24;1.70;99.90
4962;DHT22;2496;52.468;13.342;2022-11-20T14:12:51;1.70;99.90
4962;DHT22;2496;52.468;13.342;2022-11-20T14:15:28;1.70;99.90
4962;DHT22;2496;52.468;13.342;2022-11-20T14:17:56;1.70;99.90
4962;DHT22;2496;52.468;13.342;2022-11-20T14:20:25;1.70;99.90
4962;DHT22;2496;52.468;13.342;2022-11-20T14:22:54;1.60;99.90
4962;DHT22;2496;52.468;13.342;2022-11-20T14:25:22;1.70;99.90
4962;DHT22;2496;52.468;13.342;2022-11-20T14:27:54;1.70;99.90
4962;DHT22;2496;52.468;13.342;2022-11-20T14:30:23;1.70;99.90
4962;DHT22;2496;52.468;13.342;2022-11-20T14:32:53;1.70;99.90
4962;DHT22;2496;52.468;13.342;2022-11-20T14:35:24;1.70;99.90
4962;DHT22;2496;52.468;13.342;2022-11-20T14:37:52;1.70;99.90
4962;DHT22;2496;52.468;13.342;2022-11-20T14:40:28;1.70;99.90
4962;DHT22;2496;52.468;13.342;2022-11-20T14:42:55;1.70;99.90
4962;DHT22;2496;52.468;13.342;2022-11-20T14:45:23;1.70;99.90
4962;DHT22;2496;52.468;13.342;2022-11-20T14:47:52;1.70;99.90
4962;DHT22;2496;52.468;13.342;2022-11-20T14:50:23;1.70;99.90
4962;DHT22;2496;52.468;13.342;2022-11-20T14:52:51;1.70;99.90
4962;DHT22;2496;52.468;13.342;2022-11-20T14:55:32;1.70;99.90
4962;DHT22;2496;52.468;13.342;2022-11-20T14:58:01;1.60;99.90
4962;DHT22;2496;52.468;13.342;2022-11-20T15:00:30;1.70;99.90
4962;DHT22;2496;52.468;13.342;2022-11-20T15:02:59;1.70;99.90
4962;DHT22;2496;52.468;13.342;2022-11-20T15:05:45;1.60;99.90
4962;DHT22;2496;52.468;13.342;2022-11-20T15:08:13;1.60;99.90
4962;DHT22;2496;52.468;13.342;2022-11-20T15:10:46;1.60;99.90
4962;DHT22;2496;52.468;13.342;2022-11-20T15:13:16;1.50;99.90
4962;DHT22;2496;52.468;13.342;2022-11-20T15:15:47;1.50;99.90
4962;DHT22;2496;52.468;13.342;2022-11-20T15:18:18;1.50;99.90
4962;DHT22;2496;52.468;13.342;2022-11-20T15:20:46;1.50;99.90
4962;DHT22;2496;52.468;13.342;2022-11-20T15:23:14;1.50;99.90
4962;DHT22;2496;52.468;13.342;2022-11-20T15:25:43;1.50;99.90
4962;DHT22;2496;52.468;13.342;2022-11-20T15:28:18;1.50;99.90
4962;DHT22;2496;52.468;13.342;2022-11-20T15:30:45;1.50;99.90
4962;DHT22;2496;52.468;13.342;2022-11-20T15:33:13;1.50;99.90
4962;DHT22;2496;52.468;13.342;2022-11-20T15:35:42;1.50;99.90
4962;DHT22;2496;52.468;13.342;2022-11-20T15:38:09;1.50;99.90
4962;DHT22;2496;52.468;13.342;2022-11-20T15:40:36;1.50;99.90
4962;DHT22;2496;52.468;13.342;2022-11-20T15:43:03;1.50;99.90
4962;DHT22;2496;52.468;13.342;2022-11-20T15:45:35;1.50;99.90
4962;DHT22;2496;52.468;13.342;2022-11-20T15:48:04;1.50;99.90
4962;DHT22;2496;52.468;13.342;2022-11-20T15:50:36;1.50;99.90
4962;DHT22;2496;52.468;13.342;2022-11-20T15:53:05;1.50;99.90
4962;DHT22;2496;52.468;13.342;2022-11-20T15:55:32;1.40;99.90
4962;DHT22;2496;52.468;13.342;2022-11-20T15:57:59;1.40;99.90
4962;DHT22;2496;52.468;13.342;2022-11-20T16:00:26;1.40;99.90
4962;DHT22;2496;52.468;13.342;2022-11-20T16:02:53;1.40;99.90
4962;DHT22;2496;52.468;13.342;2022-11-20T16:05:20;1.40;99.90
4962;DHT22;2496;52.468;13.342;2022-11-20T16:07:50;1.40;99.90
4962;DHT22;2496;52.468;13.342;2022-11-20T16:10:18;1.40;99.90
4962;DHT22;2496;52.468;13.342;2022-11-20T16:12:45;1.40;99.90
4962;DHT22;2496;52.468;13.342;2022-11-20T16:15:30;1.40;99.90
4962;DHT22;2496;52.468;13.342;2022-11-20T16:18:15;1.30;99.90
4962;DHT22;2496;52.468;13.342;2022-11-20T16:20:42;1.30;99.90
4962;DHT22;2496;52.468;13.342;2022-11-20T16:23:09;1.20;99.90